Chanthaburi, Thailand

5:04 PM ICT on April 19, 2015 (GMT +0700)
U-Taphao International | | Change Station
CLOSE
Current Station
Airport
Location: Rayong,
Elevation: 39 ft
Nearby Weather Stations

Elev 39 ft 12.68 °N, 101.00 °E | Updated 34 minutes ago

Scattered Clouds
Scattered Clouds
88 °F
Feels Like 96 °F
N
7
Wind Variable Wind from SW

Today
High -- | Low -- °F
--% Chance of Precip.
Yesterday
High -- | Low -- °F
Precip. -- in
5:57 AM 6:24 PM
New Moon, 1% visible
Pressure 29.77 in
Visibility 6.2 miles
Clouds Few 2000 ft
Scattered Clouds 30000 ft
Heat Index 96 °F
Dew Point 73 °F
Humidity 62%
Rainfall 0.00 in
Snow Depth Not available.
UV 3 out of 12
Pollen Not available.
Air Quality Not available.
Flu Activity Not available.
METAR VTBU 190930Z 22006KT 9999 FEW020 SCT300 31/23 Q1008 A2979

More Conditions Fewer Conditions

Pressure 29.77 in
Visibility 6.2 miles
Clouds Few 2000 ft
Scattered Clouds 30000 ft
Heat Index 96 °F
Dew Point 73 °F
Humidity 62%
Rainfall 0.00 in
Snow Depth Not available.
UV 3 out of 12
Pollen Not available.
Air Quality Not available.
Flu Activity Not available.
METAR VTBU 190930Z 22006KT 9999 FEW020 SCT300 31/23 Q1008 A2979

More Conditions Fewer Conditions

10-Day Weather Forecast

Almanac

Astronomy

Apr. 19, 2015 Rise Set
Actual Time
Civil Twilight
Nautical Twilight
Astronomical Twilight
Moon
Length of Visible Light
Length of Day
Tomorrow will be .
, % of the Moon is Illuminated

Today's Extremes

Country Highs Country Lows

Community

WunderPhotos

Upload Photos

1,814,755 photos uploaded!

WunderBlogs® & News

Nearby

Air Quality

  Air Quality AQ Index Pollutant
Not available.

Snow Depth

Station Depth Elevation

Earthquake Activity

City Distance Mag. Time & Date
Minimum magnitude displayed is 2.5.

Coastal Water Temperatures

Place Temperature

Stations

Nearby Weather Stations

Station Location Temp. Windchill Dew Point Humidity Wind Precip. Elev Updated Type